Time;durP1;ratioP1;P1;durP2;ratioP2;P2;SDS_P1;SDS_P2;PMS_P1;PMS_P2;Temp;Humidity;BMP_temperature;BMP_pressure;BME280_temperature;BME280_humidity;BME280_pressure;Samples;Min_cycle;Max_cycle;Signal;HPM_P1;HPM_P2
2021/12/08 00:00:12;;;;;;;;;;;3.30;95.90;;;;;;5023714;28;19928;-81
2021/12/08 00:02:39;;;;;;;;;;;3.30;95.80;;;;;;5026342;28;19925;-80
2021/12/08 00:05:06;;;;;;;;;;;3.30;95.80;;;;;;5026263;28;19957;-80
2021/12/08 00:07:33;;;;;;;;;;;3.30;95.80;;;;;;5025611;28;19936;-81
2021/12/08 00:10:12;;;;;;;;;;;3.20;96.00;;;;;;5020409;28;19990;-81
2021/12/08 00:15:23;;;;;;;;;;;3.30;95.80;;;;;;5020611;28;19999;-80
2021/12/08 00:17:50;;;;;;;;;;;3.30;95.80;;;;;;5024553;28;19932;-77
2021/12/08 00:20:16;;;;;;;;;;;3.30;95.80;;;;;;5024108;28;19928;-77
2021/12/08 00:22:43;;;;;;;;;;;3.30;95.80;;;;;;5023927;28;19928;-77
2021/12/08 00:25:11;;;;;;;;;;;3.30;95.80;;;;;;5027768;28;19944;-77
2021/12/08 00:27:38;;;;;;;;;;;3.30;95.90;;;;;;5021399;28;19925;-78
2021/12/08 00:30:05;;;;;;;;;;;3.30;95.80;;;;;;5022786;28;19956;-77
2021/12/08 00:32:33;;;;;;;;;;;3.30;95.80;;;;;;5023454;28;19931;-77
2021/12/08 00:35:00;;;;;;;;;;;3.30;95.80;;;;;;5024286;28;19925;-77
2021/12/08 00:37:27;;;;;;;;;;;3.30;95.80;;;;;;5021451;28;19936;-77
2021/12/08 00:39:54;;;;;;;;;;;3.30;95.80;;;;;;5019646;28;19925;-77
2021/12/08 00:42:22;;;;;;;;;;;3.30;95.80;;;;;;5021492;28;20456;-78
2021/12/08 00:44:49;;;;;;;;;;;3.40;95.90;;;;;;5021940;28;19932;-77
2021/12/08 00:47:15;;;;;;;;;;;3.30;95.90;;;;;;5020806;28;19925;-77
2021/12/08 00:49:42;;;;;;;;;;;3.30;95.90;;;;;;5021565;28;19933;-77
2021/12/08 00:52:08;;;;;;;;;;;3.40;96.00;;;;;;5020488;28;20404;-77
2021/12/08 00:54:35;;;;;;;;;;;3.30;96.00;;;;;;5022757;28;19925;-76
2021/12/08 00:57:02;;;;;;;;;;;3.30;96.00;;;;;;5020917;28;19932;-76
2021/12/08 00:59:30;;;;;;;;;;;3.40;96.10;;;;;;5017779;28;19924;-77
2021/12/08 01:02:02;;;;;;;;;;;3.40;96.10;;;;;;5020787;28;19932;-78
2021/12/08 01:04:28;;;;;;;;;;;3.40;96.10;;;;;;5020825;28;19931;-78
2021/12/08 01:06:55;;;;;;;;;;;3.40;96.20;;;;;;5022304;28;20480;-77
2021/12/08 01:09:21;;;;;;;;;;;3.30;96.20;;;;;;5021203;28;19936;-78
2021/12/08 01:11:48;;;;;;;;;;;3.40;96.20;;;;;;5021854;28;19932;-78
2021/12/08 01:14:15;;;;;;;;;;;3.30;96.20;;;;;;5021935;28;19929;-78
2021/12/08 01:16:44;;;;;;;;;;;3.30;96.30;;;;;;5018536;28;19925;-78
2021/12/08 01:19:11;;;;;;;;;;;3.40;96.30;;;;;;5022609;28;19924;-78
2021/12/08 01:21:38;;;;;;;;;;;3.40;96.40;;;;;;5021125;28;20355;-78
2021/12/08 01:24:04;;;;;;;;;;;3.40;96.30;;;;;;5018576;28;20032;-78
2021/12/08 01:26:31;;;;;;;;;;;3.30;96.40;;;;;;5025647;28;19925;-77
2021/12/08 01:28:58;;;;;;;;;;;3.40;96.40;;;;;;5016847;28;20318;-77
2021/12/08 01:31:24;;;;;;;;;;;3.40;96.40;;;;;;5019112;28;19924;-77
2021/12/08 01:33:52;;;;;;;;;;;3.40;96.40;;;;;;5021869;28;19967;-77
2021/12/08 01:36:19;;;;;;;;;;;3.40;96.50;;;;;;5022417;28;19925;-77
2021/12/08 01:38:46;;;;;;;;;;;3.40;96.50;;;;;;5012832;28;19941;-77
2021/12/08 01:41:12;;;;;;;;;;;3.40;96.50;;;;;;5021965;28;19929;-77
2021/12/08 01:45:56;;;;;;;;;;;3.40;96.50;;;;;;5020806;28;19925;-78
2021/12/08 01:46:28;;;;;;;;;;;3.40;96.50;;;;;;5015894;28;19932;-77
2021/12/08 01:48:57;;;;;;;;;;;3.30;96.50;;;;;;5021672;28;19921;-77
2021/12/08 01:51:25;;;;;;;;;;;3.40;96.60;;;;;;5015285;28;19936;-77
2021/12/08 01:53:53;;;;;;;;;;;3.30;96.60;;;;;;5021623;28;20681;-77
2021/12/08 01:56:20;;;;;;;;;;;3.40;96.60;;;;;;5021647;28;19929;-77
2021/12/08 01:58:47;;;;;;;;;;;3.30;96.60;;;;;;5026421;28;19924;-78
2021/12/08 02:01:15;;;;;;;;;;;3.30;96.60;;;;;;5020493;28;19979;-77
2021/12/08 02:03:42;;;;;;;;;;;3.30;96.60;;;;;;5024456;28;19924;-77
2021/12/08 02:06:11;;;;;;;;;;;3.40;96.60;;;;;;5024280;28;19925;-76
2021/12/08 02:08:38;;;;;;;;;;;3.30;96.60;;;;;;5020204;28;19929;-76
2021/12/08 02:11:05;;;;;;;;;;;3.30;96.70;;;;;;5024243;28;19925;-77
2021/12/08 02:13:36;;;;;;;;;;;3.30;96.80;;;;;;5023080;28;19932;-76
2021/12/08 02:16:04;;;;;;;;;;;3.30;96.70;;;;;;5016993;28;19936;-77
2021/12/08 02:18:31;;;;;;;;;;;3.30;96.70;;;;;;5024697;28;19924;-77
2021/12/08 02:20:59;;;;;;;;;;;3.30;96.70;;;;;;5023897;28;20692;-77
2021/12/08 02:23:26;;;;;;;;;;;3.30;96.70;;;;;;5024047;28;19929;-77
2021/12/08 02:25:53;;;;;;;;;;;3.30;96.70;;;;;;5026373;28;19925;-78
2021/12/08 02:28:20;;;;;;;;;;;3.40;96.80;;;;;;5024847;28;19944;-78
2021/12/08 02:30:50;;;;;;;;;;;3.30;96.80;;;;;;5019986;28;19925;-77
2021/12/08 02:47:12;;;;;;;;;;;3.30;96.80;;;;;;5020494;28;19931;-76
2021/12/08 02:49:39;;;;;;;;;;;3.30;96.80;;;;;;5023556;28;20414;-77
2021/12/08 02:52:08;;;;;;;;;;;3.40;96.90;;;;;;5022426;28;19974;-77
2021/12/08 02:54:36;;;;;;;;;;;3.30;96.80;;;;;;5024607;28;19972;-77
2021/12/08 02:57:02;;;;;;;;;;;3.30;96.80;;;;;;5025128;28;19948;-76
2021/12/08 02:59:29;;;;;;;;;;;3.30;96.90;;;;;;5025079;28;19932;-77
2021/12/08 03:01:55;;;;;;;;;;;3.30;96.90;;;;;;5024494;28;19928;-77
2021/12/08 03:04:22;;;;;;;;;;;3.30;96.90;;;;;;5023330;28;19952;-77
2021/12/08 03:06:49;;;;;;;;;;;3.30;96.90;;;;;;5024712;28;20301;-77
2021/12/08 03:09:16;;;;;;;;;;;3.40;96.90;;;;;;5021118;28;20032;-77
2021/12/08 03:11:43;;;;;;;;;;;3.30;96.90;;;;;;5022031;28;19925;-77
2021/12/08 03:14:11;;;;;;;;;;;3.40;96.90;;;;;;5020737;28;19924;-77
2021/12/08 03:16:40;;;;;;;;;;;3.30;96.90;;;;;;5021774;28;19932;-77
2021/12/08 03:19:07;;;;;;;;;;;3.30;96.90;;;;;;5022994;28;20505;-77
2021/12/08 03:21:34;;;;;;;;;;;3.40;97.30;;;;;;5023377;28;20293;-77
2021/12/08 03:24:14;;;;;;;;;;;3.30;96.90;;;;;;5022069;28;20012;-77
2021/12/08 03:26:50;;;;;;;;;;;3.30;96.90;;;;;;5023060;28;20049;-77
2021/12/08 03:29:23;;;;;;;;;;;3.40;97.00;;;;;;5020960;28;19925;-77
2021/12/08 03:31:53;;;;;;;;;;;3.30;97.00;;;;;;5021430;28;20020;-77
2021/12/08 03:34:22;;;;;;;;;;;3.30;97.00;;;;;;5022305;28;19931;-77
2021/12/08 03:36:49;;;;;;;;;;;3.30;97.00;;;;;;5021991;28;19929;-77
2021/12/08 03:39:15;;;;;;;;;;;3.30;97.00;;;;;;5023342;28;19928;-77
2021/12/08 03:41:43;;;;;;;;;;;3.30;97.00;;;;;;5023016;28;19949;-77
2021/12/08 03:44:10;;;;;;;;;;;3.30;97.00;;;;;;5022962;28;20341;-77
2021/12/08 03:46:40;;;;;;;;;;;3.30;97.00;;;;;;5018502;28;19925;-77
2021/12/08 03:49:10;;;;;;;;;;;3.40;97.00;;;;;;5022133;28;19929;-77
2021/12/08 03:51:37;;;;;;;;;;;3.40;97.00;;;;;;5019314;28;19971;-77
2021/12/08 03:54:03;;;;;;;;;;;3.30;97.00;;;;;;5022782;28;19924;-77
2021/12/08 03:56:30;;;;;;;;;;;3.40;97.00;;;;;;5023239;28;19932;-77
2021/12/08 03:58:58;;;;;;;;;;;3.30;97.00;;;;;;5022718;28;19932;-77
2021/12/08 04:01:24;;;;;;;;;;;3.30;97.10;;;;;;5019454;28;19925;-77
2021/12/08 04:03:51;;;;;;;;;;;3.30;97.00;;;;;;5022059;28;19963;-77
2021/12/08 04:06:29;;;;;;;;;;;3.40;97.00;;;;;;5021097;28;19929;-77
2021/12/08 04:08:56;;;;;;;;;;;3.30;97.00;;;;;;5021625;28;19929;-76
2021/12/08 04:11:24;;;;;;;;;;;3.40;97.00;;;;;;5022321;28;20072;-76
2021/12/08 04:13:55;;;;;;;;;;;3.40;97.10;;;;;;5023241;28;19936;-77
2021/12/08 04:16:24;;;;;;;;;;;3.40;97.10;;;;;;5017455;28;19929;-77
2021/12/08 04:18:51;;;;;;;;;;;3.40;97.10;;;;;;5022844;28;20669;-77
2021/12/08 04:21:18;;;;;;;;;;;3.40;97.40;;;;;;5020505;28;19928;-77
2021/12/08 04:23:45;;;;;;;;;;;3.40;97.10;;;;;;5020264;28;19925;-77
2021/12/08 04:26:14;;;;;;;;;;;3.40;97.10;;;;;;5027352;28;19925;-77
2021/12/08 04:28:41;;;;;;;;;;;3.40;97.10;;;;;;5023369;28;19925;-77
2021/12/08 04:31:09;;;;;;;;;;;3.40;97.10;;;;;;5020070;28;19931;-77
2021/12/08 04:33:37;;;;;;;;;;;3.40;97.10;;;;;;5021373;28;19968;-77
2021/12/08 04:36:06;;;;;;;;;;;3.40;97.10;;;;;;5019920;28;19932;-77
2021/12/08 04:38:37;;;;;;;;;;;3.40;97.10;;;;;;5020515;28;20465;-77
2021/12/08 04:41:07;;;;;;;;;;;3.40;97.10;;;;;;5021410;28;19937;-77
2021/12/08 04:43:40;;;;;;;;;;;3.40;97.10;;;;;;5022523;28;19935;-77
2021/12/08 04:46:14;;;;;;;;;;;3.40;97.10;;;;;;5020183;28;20008;-77
2021/12/08 04:49:02;;;;;;;;;;;3.40;97.10;;;;;;5022116;28;19929;-77
2021/12/08 04:51:50;;;;;;;;;;;3.40;97.40;;;;;;5014706;28;20399;-77
2021/12/08 05:03:01;;;;;;;;;;;3.40;97.10;;;;;;5016919;28;20024;-78
2021/12/08 05:05:49;;;;;;;;;;;3.40;97.10;;;;;;5022058;28;19936;-77
2021/12/08 05:08:19;;;;;;;;;;;3.40;97.10;;;;;;5018501;28;20314;-77
2021/12/08 05:10:48;;;;;;;;;;;3.40;97.10;;;;;;5021626;28;20409;-77
2021/12/08 05:13:18;;;;;;;;;;;3.40;97.10;;;;;;5021492;28;20723;-77
2021/12/08 05:15:46;;;;;;;;;;;3.40;97.20;;;;;;5017288;28;19929;-77
2021/12/08 05:18:15;;;;;;;;;;;3.40;97.20;;;;;;5021587;28;19928;-77
2021/12/08 05:20:48;;;;;;;;;;;3.40;97.20;;;;;;5020782;28;19979;-77
2021/12/08 05:23:18;;;;;;;;;;;3.40;97.20;;;;;;5018449;28;19925;-77
2021/12/08 05:25:45;;;;;;;;;;;3.40;97.50;;;;;;5018967;28;19936;-77
2021/12/08 05:28:14;;;;;;;;;;;3.40;97.20;;;;;;5021916;28;19925;-77
2021/12/08 05:30:43;;;;;;;;;;;3.40;97.20;;;;;;5016481;28;19925;-76
2021/12/08 05:33:10;;;;;;;;;;;3.40;97.20;;;;;;5020140;28;19932;-77
2021/12/08 05:35:38;;;;;;;;;;;3.40;97.20;;;;;;5021244;28;19925;-77
2021/12/08 05:38:06;;;;;;;;;;;3.40;97.20;;;;;;5024232;28;19921;-77
2021/12/08 05:40:34;;;;;;;;;;;3.50;97.20;;;;;;5016953;28;20664;-78
2021/12/08 05:43:01;;;;;;;;;;;3.40;97.20;;;;;;5021153;28;19925;-77
2021/12/08 05:45:27;;;;;;;;;;;3.40;97.20;;;;;;5019759;28;19929;-76
2021/12/08 05:47:55;;;;;;;;;;;3.40;97.20;;;;;;5022426;28;19933;-76
2021/12/08 05:50:24;;;;;;;;;;;3.40;97.20;;;;;;5015439;28;20452;-77
2021/12/08 05:52:53;;;;;;;;;;;3.40;97.20;;;;;;5022185;28;19928;-77
2021/12/08 05:55:21;;;;;;;;;;;3.50;97.30;;;;;;5020155;28;19929;-77
2021/12/08 05:57:48;;;;;;;;;;;3.40;97.20;;;;;;5022082;28;19936;-77
2021/12/08 06:00:18;;;;;;;;;;;3.40;97.30;;;;;;5014490;28;19928;-77
2021/12/08 06:02:45;;;;;;;;;;;3.40;97.30;;;;;;5016189;28;20852;-77
2021/12/08 06:05:12;;;;;;;;;;;3.40;97.30;;;;;;5020414;28;19925;-77
2021/12/08 06:07:39;;;;;;;;;;;3.40;97.30;;;;;;5020444;28;19928;-77
2021/12/08 06:10:09;;;;;;;;;;;3.40;97.30;;;;;;5019337;28;20377;-77
2021/12/08 06:12:37;;;;;;;;;;;3.40;97.30;;;;;;5020931;28;20520;-77
2021/12/08 06:15:04;;;;;;;;;;;3.40;97.30;;;;;;5017887;28;19926;-77
2021/12/08 06:17:31;;;;;;;;;;;3.40;97.30;;;;;;5021755;28;19925;-77
2021/12/08 06:19:58;;;;;;;;;;;3.40;97.30;;;;;;5021159;28;19932;-77
2021/12/08 06:22:25;;;;;;;;;;;3.50;97.30;;;;;;5018968;28;19932;-77
2021/12/08 06:24:52;;;;;;;;;;;3.50;97.30;;;;;;5026226;28;20610;-77
2021/12/08 06:27:19;;;;;;;;;;;3.40;97.30;;;;;;5021012;28;19938;-77
2021/12/08 06:29:48;;;;;;;;;;;3.40;97.30;;;;;;5018559;28;19929;-77
2021/12/08 06:32:15;;;;;;;;;;;3.40;97.30;;;;;;5018693;28;19932;-77
2021/12/08 06:34:43;;;;;;;;;;;3.40;97.30;;;;;;5020530;28;19929;-77
2021/12/08 06:37:12;;;;;;;;;;;3.40;97.30;;;;;;5021394;28;19932;-77
2021/12/08 06:39:40;;;;;;;;;;;3.40;97.30;;;;;;5019817;28;19932;-77
2021/12/08 06:42:09;;;;;;;;;;;3.40;97.30;;;;;;5018037;28;20763;-76
2021/12/08 06:44:39;;;;;;;;;;;3.40;97.40;;;;;;5022569;28;19930;-78
2021/12/08 06:47:08;;;;;;;;;;;3.40;97.70;;;;;;5021644;28;19925;-78
2021/12/08 06:49:35;;;;;;;;;;;3.40;97.80;;;;;;5024355;28;19987;-79
2021/12/08 06:52:04;;;;;;;;;;;3.50;97.90;;;;;;5022601;28;19932;-78
2021/12/08 06:54:32;;;;;;;;;;;3.50;98.00;;;;;;5024792;28;19940;-78
2021/12/08 06:57:01;;;;;;;;;;;3.50;98.00;;;;;;5024446;28;19924;-78
2021/12/08 06:59:31;;;;;;;;;;;3.50;97.90;;;;;;5019584;28;20294;-78
2021/12/08 07:02:05;;;;;;;;;;;3.40;97.90;;;;;;5024257;28;20004;-78
2021/12/08 07:04:36;;;;;;;;;;;3.50;97.80;;;;;;5024637;28;20594;-78
2021/12/08 07:07:08;;;;;;;;;;;3.40;97.80;;;;;;5022085;28;19936;-78
2021/12/08 07:09:38;;;;;;;;;;;3.50;97.70;;;;;;5023130;28;19941;-78
2021/12/08 07:12:06;;;;;;;;;;;3.50;97.70;;;;;;5023864;28;20589;-78
2021/12/08 07:14:33;;;;;;;;;;;3.50;97.70;;;;;;5023102;28;19929;-78
2021/12/08 07:17:03;;;;;;;;;;;3.50;97.60;;;;;;5020401;28;19925;-78
2021/12/08 07:19:34;;;;;;;;;;;3.50;97.60;;;;;;5024024;28;19929;-78
2021/12/08 07:22:04;;;;;;;;;;;3.50;97.60;;;;;;5023240;28;19936;-78
2021/12/08 07:24:32;;;;;;;;;;;3.50;97.60;;;;;;5021103;28;20437;-78
2021/12/08 07:27:01;;;;;;;;;;;3.50;97.50;;;;;;5021297;28;19932;-78
2021/12/08 07:29:29;;;;;;;;;;;3.50;97.50;;;;;;5024536;28;19929;-78
2021/12/08 07:31:58;;;;;;;;;;;3.50;97.50;;;;;;5019218;28;20795;-78
2021/12/08 07:34:25;;;;;;;;;;;3.50;97.50;;;;;;5021257;28;19936;-78
2021/12/08 07:36:53;;;;;;;;;;;3.50;97.50;;;;;;5023316;28;19933;-78
2021/12/08 07:39:22;;;;;;;;;;;3.50;97.50;;;;;;5014786;28;19935;-78
2021/12/08 07:41:52;;;;;;;;;;;3.50;97.40;;;;;;5018822;28;19936;-78
2021/12/08 07:44:19;;;;;;;;;;;3.50;97.40;;;;;;5018704;28;19924;-78
2021/12/08 07:46:49;;;;;;;;;;;3.50;97.40;;;;;;5017710;28;20348;-78
2021/12/08 07:49:17;;;;;;;;;;;3.50;97.40;;;;;;5020557;28;20389;-78
2021/12/08 07:51:45;;;;;;;;;;;3.50;97.40;;;;;;5020414;28;20323;-77
2021/12/08 07:54:12;;;;;;;;;;;3.50;97.50;;;;;;5018254;28;19925;-77
2021/12/08 07:56:43;;;;;;;;;;;3.50;97.50;;;;;;5022837;28;19925;-78
2021/12/08 07:59:10;;;;;;;;;;;3.50;97.50;;;;;;5019790;28;20015;-79
2021/12/08 08:01:40;;;;;;;;;;;3.50;97.50;;;;;;5015052;28;20034;-78
2021/12/08 08:04:09;;;;;;;;;;;3.50;97.50;;;;;;5019192;28;19924;-78
2021/12/08 08:06:37;;;;;;;;;;;3.50;97.50;;;;;;5020063;28;19929;-78
2021/12/08 08:09:07;;;;;;;;;;;3.50;97.50;;;;;;5013353;28;19991;-78
2021/12/08 08:11:36;;;;;;;;;;;3.50;97.50;;;;;;5018738;28;19971;-77
2021/12/08 08:14:04;;;;;;;;;;;3.50;97.50;;;;;;5018297;28;19995;-77
2021/12/08 08:16:32;;;;;;;;;;;3.50;97.50;;;;;;5018279;28;19940;-78
2021/12/08 08:19:06;;;;;;;;;;;3.50;97.50;;;;;;5013892;28;19931;-78
2021/12/08 08:21:36;;;;;;;;;;;3.50;97.50;;;;;;5019066;28;19929;-77
2021/12/08 08:24:03;;;;;;;;;;;3.50;97.50;;;;;;5020367;28;19924;-78
2021/12/08 08:26:32;;;;;;;;;;;3.50;97.50;;;;;;5018110;28;20261;-78
2021/12/08 08:28:59;;;;;;;;;;;3.50;97.50;;;;;;5019263;28;19925;-78
2021/12/08 08:31:28;;;;;;;;;;;3.50;97.50;;;;;;5016230;28;19971;-78
2021/12/08 08:33:55;;;;;;;;;;;3.50;97.50;;;;;;5020650;28;20348;-78
2021/12/08 08:36:23;;;;;;;;;;;3.50;97.50;;;;;;5021441;28;19929;-78
2021/12/08 08:38:54;;;;;;;;;;;3.50;97.50;;;;;;5017601;28;20527;-78
2021/12/08 08:41:22;;;;;;;;;;;3.50;97.40;;;;;;5021579;28;19928;-78
2021/12/08 08:43:49;;;;;;;;;;;3.50;97.40;;;;;;5021544;28;19985;-78
2021/12/08 08:46:18;;;;;;;;;;;3.50;97.40;;;;;;5019398;28;20495;-77
2021/12/08 08:48:49;;;;;;;;;;;3.50;97.40;;;;;;5018400;28;19931;-77
2021/12/08 08:51:18;;;;;;;;;;;3.50;97.40;;;;;;5015650;28;19936;-77
2021/12/08 08:53:47;;;;;;;;;;;3.50;97.40;;;;;;5020588;28;19967;-78
2021/12/08 08:56:17;;;;;;;;;;;3.50;97.40;;;;;;5021660;28;19925;-77
2021/12/08 08:58:45;;;;;;;;;;;3.50;97.40;;;;;;5021646;28;20313;-78
2021/12/08 09:01:14;;;;;;;;;;;3.50;97.40;;;;;;5012648;28;19929;-78
2021/12/08 09:03:42;;;;;;;;;;;3.60;97.40;;;;;;5017122;28;20334;-76
2021/12/08 09:06:12;;;;;;;;;;;3.50;97.40;;;;;;5016471;28;19924;-78
2021/12/08 09:08:39;;;;;;;;;;;3.50;97.40;;;;;;5018752;28;19986;-77
2021/12/08 09:11:10;;;;;;;;;;;3.60;97.40;;;;;;5017739;28;19935;-78
2021/12/08 09:13:39;;;;;;;;;;;3.60;97.40;;;;;;5016283;28;19932;-78
2021/12/08 09:16:07;;;;;;;;;;;3.60;97.50;;;;;;5016831;28;20870;-77
2021/12/08 09:18:41;;;;;;;;;;;3.60;97.50;;;;;;5020079;28;19947;-77
2021/12/08 09:21:14;;;;;;;;;;;3.60;97.50;;;;;;5017002;28;19925;-77
2021/12/08 09:23:46;;;;;;;;;;;3.60;97.50;;;;;;5018949;28;20011;-78
2021/12/08 09:26:14;;;;;;;;;;;3.60;97.50;;;;;;5016120;28;20348;-77
2021/12/08 09:28:42;;;;;;;;;;;3.60;97.50;;;;;;5015192;28;19925;-77
2021/12/08 09:31:11;;;;;;;;;;;3.60;97.60;;;;;;5014955;28;19925;-78
2021/12/08 09:33:42;;;;;;;;;;;3.60;97.60;;;;;;5017666;28;19932;-81
2021/12/08 09:36:10;;;;;;;;;;;3.60;97.60;;;;;;5015275;28;19933;-80
2021/12/08 09:38:39;;;;;;;;;;;3.60;97.60;;;;;;5016393;28;20537;-81
2021/12/08 09:41:09;;;;;;;;;;;3.60;97.60;;;;;;5014337;28;19925;-79
2021/12/08 09:43:38;;;;;;;;;;;3.60;97.60;;;;;;5015994;28;20736;-80
2021/12/08 09:46:07;;;;;;;;;;;3.70;97.60;;;;;;5012306;28;19925;-81
2021/12/08 09:48:34;;;;;;;;;;;3.60;97.50;;;;;;5023667;28;19932;-81
2021/12/08 09:51:00;;;;;;;;;;;3.70;97.50;;;;;;5020262;28;19925;-81
2021/12/08 09:53:28;;;;;;;;;;;3.70;97.50;;;;;;5021990;28;19990;-80
2021/12/08 09:55:55;;;;;;;;;;;3.70;97.40;;;;;;5022219;28;20766;-80
2021/12/08 09:58:23;;;;;;;;;;;3.70;97.40;;;;;;5022472;28;19925;-80
2021/12/08 10:00:52;;;;;;;;;;;3.70;97.40;;;;;;5018180;28;19924;-81
2021/12/08 10:03:19;;;;;;;;;;;3.70;97.30;;;;;;5019490;28;19929;-80
2021/12/08 10:05:46;;;;;;;;;;;3.70;97.30;;;;;;5013268;28;19925;-81
2021/12/08 10:08:12;;;;;;;;;;;3.70;97.30;;;;;;5013172;28;20314;-80
2021/12/08 10:10:41;;;;;;;;;;;3.70;97.20;;;;;;5015533;28;20290;-80
2021/12/08 10:13:08;;;;;;;;;;;3.70;97.20;;;;;;5016417;28;20011;-81
2021/12/08 10:15:36;;;;;;;;;;;3.70;97.20;;;;;;5014813;28;20765;-81
2021/12/08 10:18:03;;;;;;;;;;;3.70;97.20;;;;;;5021782;28;20285;-79
2021/12/08 10:20:31;;;;;;;;;;;3.80;97.20;;;;;;5022820;28;19925;-81
2021/12/08 10:23:16;;;;;;;;;;;3.80;97.30;;;;;;5019780;28;19932;-80
2021/12/08 10:25:45;;;;;;;;;;;3.80;97.30;;;;;;5023170;28;19941;-80
2021/12/08 10:28:13;;;;;;;;;;;3.80;97.30;;;;;;5022589;28;20329;-81
2021/12/08 10:30:46;;;;;;;;;;;3.80;97.30;;;;;;5014412;28;19925;-80
2021/12/08 10:33:35;;;;;;;;;;;3.80;97.30;;;;;;5022739;28;19964;-80
2021/12/08 10:36:05;;;;;;;;;;;3.80;97.30;;;;;;5021664;28;19936;-80
2021/12/08 10:38:36;;;;;;;;;;;3.80;97.30;;;;;;5023351;28;20056;-81
2021/12/08 10:41:05;;;;;;;;;;;3.90;97.40;;;;;;5021115;28;19983;-80
2021/12/08 10:43:32;;;;;;;;;;;3.90;97.40;;;;;;5018443;28;19975;-82
2021/12/08 10:46:01;;;;;;;;;;;3.90;97.50;;;;;;5019646;28;19992;-80
2021/12/08 10:48:34;;;;;;;;;;;3.90;97.50;;;;;;5022257;28;20047;-80
2021/12/08 10:56:34;;;;;;;;;;;3.90;97.40;;;;;;5017042;28;19932;-79
2021/12/08 10:59:01;;;;;;;;;;;3.90;97.40;;;;;;5022472;28;19925;-81
2021/12/08 11:01:29;;;;;;;;;;;3.90;97.40;;;;;;5016941;28;19929;-80
2021/12/08 11:03:59;;;;;;;;;;;4.00;97.40;;;;;;5021306;28;19935;-81
2021/12/08 11:06:29;;;;;;;;;;;3.90;97.30;;;;;;5021450;28;19936;-79
2021/12/08 11:08:56;;;;;;;;;;;3.90;97.30;;;;;;5020170;28;20353;-80
2021/12/08 11:11:25;;;;;;;;;;;3.90;97.30;;;;;;5016928;28;19929;-79
2021/12/08 11:13:56;;;;;;;;;;;4.00;97.30;;;;;;5023847;28;19979;-80
2021/12/08 11:16:23;;;;;;;;;;;4.00;97.30;;;;;;5019845;28;19925;-79
2021/12/08 11:18:53;;;;;;;;;;;4.00;97.20;;;;;;5020450;28;19929;-81
2021/12/08 11:21:23;;;;;;;;;;;4.00;97.20;;;;;;5020897;28;19932;-80
2021/12/08 11:23:52;;;;;;;;;;;4.00;97.20;;;;;;5019363;28;19929;-80
2021/12/08 11:26:21;;;;;;;;;;;4.00;97.20;;;;;;5021593;28;19925;-81
2021/12/08 11:28:52;;;;;;;;;;;4.10;97.20;;;;;;5013938;28;19925;-80
2021/12/08 11:31:19;;;;;;;;;;;4.00;97.20;;;;;;5015720;28;19939;-80
2021/12/08 11:33:50;;;;;;;;;;;4.00;97.20;;;;;;5020752;28;19925;-80
2021/12/08 11:36:20;;;;;;;;;;;4.10;97.20;;;;;;5025328;28;20236;-81
2021/12/08 11:38:48;;;;;;;;;;;4.10;97.20;;;;;;5015668;28;19924;-80
2021/12/08 11:41:26;;;;;;;;;;;4.10;97.20;;;;;;5017357;28;19933;-79
2021/12/08 11:43:53;;;;;;;;;;;4.10;97.20;;;;;;5018003;28;19925;-79
2021/12/08 11:46:20;;;;;;;;;;;4.10;97.20;;;;;;5018722;28;19925;-79
2021/12/08 11:48:54;;;;;;;;;;;4.10;97.20;;;;;;5018555;28;19932;-80
2021/12/08 11:51:22;;;;;;;;;;;4.10;97.50;;;;;;5017390;28;19960;-80
2021/12/08 11:53:48;;;;;;;;;;;4.10;97.10;;;;;;5017229;28;19932;-80
2021/12/08 11:56:32;;;;;;;;;;;4.10;97.10;;;;;;5017822;28;20607;-79
2021/12/08 11:58:58;;;;;;;;;;;4.20;97.20;;;;;;5017014;28;19924;-80
2021/12/08 12:01:25;;;;;;;;;;;4.20;97.10;;;;;;5018085;28;19928;-79
2021/12/08 12:03:52;;;;;;;;;;;4.20;97.10;;;;;;5013050;28;19929;-80
2021/12/08 12:06:18;;;;;;;;;;;4.20;97.10;;;;;;5015992;28;20393;-80
2021/12/08 12:08:47;;;;;;;;;;;4.20;97.10;;;;;;5016336;28;19936;-80
2021/12/08 12:11:13;;;;;;;;;;;4.20;97.40;;;;;;5020521;28;20019;-80
2021/12/08 12:13:40;;;;;;;;;;;4.20;97.10;;;;;;5019513;28;19937;-80
2021/12/08 12:16:07;;;;;;;;;;;4.20;97.10;;;;;;5014110;28;19932;-80
2021/12/08 12:18:34;;;;;;;;;;;4.20;97.10;;;;;;5019826;28;19932;-80
2021/12/08 12:21:08;;;;;;;;;;;4.20;97.10;;;;;;5017118;28;19924;-80
2021/12/08 12:23:47;;;;;;;;;;;4.30;97.10;;;;;;5020059;28;20409;-80
2021/12/08 12:26:20;;;;;;;;;;;4.30;97.10;;;;;;5017066;28;19936;-81
2021/12/08 12:28:56;;;;;;;;;;;4.30;97.20;;;;;;5019415;28;19983;-79
2021/12/08 12:31:26;;;;;;;;;;;4.30;97.10;;;;;;5010472;28;19933;-80
2021/12/08 12:33:53;;;;;;;;;;;4.30;97.10;;;;;;5013578;28;20008;-80
2021/12/08 12:36:22;;;;;;;;;;;4.30;97.10;;;;;;5016319;28;19932;-81
2021/12/08 12:38:49;;;;;;;;;;;4.30;97.10;;;;;;5014777;28;20504;-80
2021/12/08 12:41:28;;;;;;;;;;;4.30;97.10;;;;;;5013866;28;19932;-80
2021/12/08 12:44:10;;;;;;;;;;;4.30;97.10;;;;;;5017334;28;19932;-79
2021/12/08 12:46:36;;;;;;;;;;;4.30;97.10;;;;;;5010164;28;19930;-80
2021/12/08 12:49:18;;;;;;;;;;;4.30;97.10;;;;;;5012740;28;19925;-80
2021/12/08 12:51:56;;;;;;;;;;;4.30;97.20;;;;;;5011581;28;19928;-81
2021/12/08 12:54:24;;;;;;;;;;;4.30;97.10;;;;;;5017821;28;19925;-81
2021/12/08 12:56:52;;;;;;;;;;;4.40;97.20;;;;;;5016592;28;19925;-80
2021/12/08 12:59:21;;;;;;;;;;;4.40;97.20;;;;;;5017517;28;19924;-80
2021/12/08 13:02:03;;;;;;;;;;;4.40;97.30;;;;;;5010200;28;19929;-80
2021/12/08 13:04:30;;;;;;;;;;;4.40;97.30;;;;;;5017935;28;19925;-81
2021/12/08 13:06:57;;;;;;;;;;;4.40;97.20;;;;;;5017517;28;20408;-81
2021/12/08 13:09:46;;;;;;;;;;;4.40;97.20;;;;;;5015110;28;20662;-79
2021/12/08 13:12:15;;;;;;;;;;;4.40;97.20;;;;;;5015716;28;19933;-81
2021/12/08 13:14:43;;;;;;;;;;;4.40;97.20;;;;;;5016707;28;20699;-80
2021/12/08 13:17:11;;;;;;;;;;;4.40;97.20;;;;;;5014270;28;19932;-81
2021/12/08 13:19:39;;;;;;;;;;;4.40;97.20;;;;;;5015645;28;19936;-81
2021/12/08 13:22:05;;;;;;;;;;;4.50;97.20;;;;;;5016908;28;19932;-81
2021/12/08 13:24:38;;;;;;;;;;;4.50;97.20;;;;;;5013475;28;20581;-81
2021/12/08 13:27:06;;;;;;;;;;;4.50;97.20;;;;;;5015577;28;19933;-80
2021/12/08 13:29:36;;;;;;;;;;;4.50;97.30;;;;;;5013866;28;19924;-80
2021/12/08 13:32:11;;;;;;;;;;;4.50;97.20;;;;;;5015092;28;19960;-79
2021/12/08 13:34:38;;;;;;;;;;;4.50;97.20;;;;;;5016270;28;19924;-80
2021/12/08 13:37:16;;;;;;;;;;;4.50;97.20;;;;;;5017223;28;20625;-81
2021/12/08 13:39:43;;;;;;;;;;;4.50;97.20;;;;;;5010966;28;19929;-80
2021/12/08 13:42:11;;;;;;;;;;;4.50;97.20;;;;;;5013634;28;19932;-81
2021/12/08 13:44:40;;;;;;;;;;;4.50;97.20;;;;;;5013375;28;19983;-81
2021/12/08 13:47:08;;;;;;;;;;;4.50;97.20;;;;;;5010917;28;19959;-79
2021/12/08 13:49:46;;;;;;;;;;;4.60;97.20;;;;;;5007250;28;20023;-81
2021/12/08 13:52:22;;;;;;;;;;;4.50;97.20;;;;;;5017334;28;19932;-81
2021/12/08 13:54:50;;;;;;;;;;;4.60;97.60;;;;;;5017246;28;19929;-79
2021/12/08 13:57:27;;;;;;;;;;;4.60;97.20;;;;;;5024003;28;20555;-81
2021/12/08 13:59:57;;;;;;;;;;;4.60;97.20;;;;;;5018822;28;19929;-79
2021/12/08 14:02:25;;;;;;;;;;;4.60;97.20;;;;;;5015679;28;19932;-80
2021/12/08 14:04:58;;;;;;;;;;;4.60;97.20;;;;;;5022585;28;19929;-80
2021/12/08 14:07:25;;;;;;;;;;;4.60;97.20;;;;;;5016015;28;20853;-81
2021/12/08 14:09:55;;;;;;;;;;;4.60;97.20;;;;;;5020468;28;20741;-79
2021/12/08 14:12:22;;;;;;;;;;;4.60;97.20;;;;;;5023429;28;19925;-80
2021/12/08 14:14:56;;;;;;;;;;;4.60;97.20;;;;;;5019658;28;19925;-80
2021/12/08 14:17:27;;;;;;;;;;;4.60;97.20;;;;;;5024092;28;19933;-79
2021/12/08 14:19:53;;;;;;;;;;;4.60;97.20;;;;;;5022139;28;19924;-80
2021/12/08 14:22:20;;;;;;;;;;;4.60;97.20;;;;;;5016831;28;20345;-80
2021/12/08 14:24:54;;;;;;;;;;;4.60;97.20;;;;;;5022293;28;19925;-81
2021/12/08 14:27:21;;;;;;;;;;;4.60;97.20;;;;;;5022839;28;19932;-80
2021/12/08 14:29:47;;;;;;;;;;;4.60;97.20;;;;;;5018803;28;19983;-81
2021/12/08 14:32:18;;;;;;;;;;;4.70;97.30;;;;;;5020250;28;19998;-79
2021/12/08 14:34:44;;;;;;;;;;;4.70;97.50;;;;;;5019782;28;19936;-79
2021/12/08 14:37:14;;;;;;;;;;;4.80;98.00;;;;;;5021313;28;19928;-78
2021/12/08 14:39:44;;;;;;;;;;;4.80;98.30;;;;;;5017171;28;19924;-78
2021/12/08 14:42:12;;;;;;;;;;;4.90;98.60;;;;;;5020219;28;20468;-78
2021/12/08 14:44:40;;;;;;;;;;;5.00;98.80;;;;;;5019488;28;20302;-79
2021/12/08 14:47:08;;;;;;;;;;;5.10;98.90;;;;;;5021492;28;19939;-78
2021/12/08 14:49:40;;;;;;;;;;;5.20;98.90;;;;;;5020486;28;19931;-80
2021/12/08 14:52:08;;;;;;;;;;;5.20;98.90;;;;;;5021301;28;19933;-78
2021/12/08 14:54:35;;;;;;;;;;;5.30;98.80;;;;;;5021529;28;20340;-80
2021/12/08 14:57:04;;;;;;;;;;;5.30;98.60;;;;;;5021510;28;19929;-80
2021/12/08 14:59:31;;;;;;;;;;;5.30;98.50;;;;;;5013817;28;20343;-78
2021/12/08 15:01:58;;;;;;;;;;;5.40;98.40;;;;;;5018253;28;19925;-80
2021/12/08 15:04:24;;;;;;;;;;;5.40;98.20;;;;;;5021606;28;19947;-78
2021/12/08 15:06:58;;;;;;;;;;;5.40;98.10;;;;;;5020044;28;19925;-78
2021/12/08 15:09:25;;;;;;;;;;;5.50;98.00;;;;;;5014258;28;19925;-78
2021/12/08 15:11:53;;;;;;;;;;;5.50;97.90;;;;;;5020100;28;20015;-79